createdAt,value
2017-09-12T00:01:44.028Z,76.11
2017-09-12T00:04:19.135Z,76.39
2017-09-12T00:06:53.691Z,76.66
2017-09-12T00:09:28.355Z,77.21
2017-09-12T00:12:03.420Z,77.22
2017-09-12T00:14:38.212Z,77.40
2017-09-12T00:17:12.995Z,77.37
2017-09-12T00:19:47.744Z,77.41
2017-09-12T00:22:22.627Z,77.23
2017-09-12T00:24:57.372Z,76.98
2017-09-12T00:27:32.955Z,77.46
2017-09-12T00:30:07.791Z,77.42
2017-09-12T00:32:42.290Z,77.33
2017-09-12T00:35:17.442Z,77.26
2017-09-12T00:37:52.356Z,77.43
2017-09-12T00:40:26.860Z,77.17
2017-09-12T00:43:01.615Z,77.63
2017-09-12T00:45:36.011Z,77.59
2017-09-12T00:48:11.146Z,78.07
2017-09-12T00:50:45.960Z,78.28
2017-09-12T00:53:20.427Z,78.48
2017-09-12T00:55:55.116Z,78.73
2017-09-12T00:58:29.802Z,78.77
2017-09-12T01:01:04.575Z,78.67
2017-09-12T01:03:39.648Z,78.76
2017-09-12T01:06:15.876Z,78.87
2017-09-12T01:08:51.055Z,78.91
2017-09-12T01:11:25.603Z,79.04
2017-09-12T01:14:00.581Z,78.75
2017-09-12T01:16:34.886Z,79.02
2017-09-12T01:19:09.753Z,79.02
2017-09-12T01:21:44.465Z,78.91
2017-09-12T01:24:18.850Z,78.32
2017-09-12T01:26:53.955Z,78.49
2017-09-12T01:29:28.332Z,78.37
2017-09-12T01:32:03.163Z,78.20
2017-09-12T01:34:38.108Z,78.26
2017-09-12T01:37:13.202Z,78.24
2017-09-12T01:39:48.075Z,78.43
2017-09-12T01:42:23.003Z,77.83
2017-09-12T01:44:57.891Z,77.99
2017-09-12T01:47:32.818Z,77.82
2017-09-12T01:50:07.283Z,78.12
2017-09-12T01:52:42.309Z,77.90
2017-09-12T01:55:17.144Z,77.96
2017-09-12T01:57:51.959Z,78.23
2017-09-12T02:00:27.358Z,78.30
2017-09-12T02:03:02.755Z,78.41
2017-09-12T02:05:37.450Z,78.30
2017-09-12T02:08:12.355Z,78.45
2017-09-12T02:10:47.293Z,79.29
2017-09-12T02:13:22.021Z,78.58
2017-09-12T02:15:56.751Z,78.79
2017-09-12T02:18:31.624Z,78.72
2017-09-12T02:21:06.388Z,78.62
2017-09-12T02:23:41.121Z,78.84
2017-09-12T02:26:15.656Z,78.98
2017-09-12T02:28:50.374Z,78.54
2017-09-12T02:31:25.047Z,78.91
2017-09-12T02:33:59.857Z,78.88
2017-09-12T02:36:34.584Z,79.26
2017-09-12T02:39:09.690Z,79.21
2017-09-12T02:41:45.281Z,79.57
2017-09-12T02:44:19.607Z,79.75
2017-09-12T02:46:54.698Z,79.97
2017-09-12T02:49:29.344Z,80.46
2017-09-12T02:52:04.053Z,80.43
2017-09-12T02:54:38.870Z,81.36
2017-09-12T02:57:13.741Z,81.14
2017-09-12T02:59:48.316Z,80.95
2017-09-12T03:02:22.917Z,81.16
2017-09-12T03:04:57.629Z,80.93
2017-09-12T03:07:32.443Z,80.93
2017-09-12T03:10:07.187Z,81.07
2017-09-12T03:12:41.947Z,81.20
2017-09-12T03:15:16.675Z,81.19
2017-09-12T03:17:51.688Z,81.09
2017-09-12T03:20:26.212Z,81.17
2017-09-12T03:23:00.917Z,81.11
2017-09-12T03:25:35.863Z,80.67
2017-09-12T03:28:10.544Z,80.70
2017-09-12T03:30:45.352Z,80.93
2017-09-12T03:33:20.056Z,80.60
2017-09-12T03:35:54.701Z,80.82
2017-09-12T03:38:29.501Z,80.51
2017-09-12T03:41:04.287Z,80.74
2017-09-12T03:43:38.924Z,81.01
2017-09-12T03:46:13.767Z,80.94
2017-09-12T03:48:48.635Z,80.82
2017-09-12T03:51:23.016Z,80.78
2017-09-12T03:53:57.926Z,80.83
2017-09-12T03:56:32.678Z,80.96
2017-09-12T03:59:07.263Z,80.61
2017-09-12T04:01:41.991Z,80.62
2017-09-12T04:04:16.654Z,80.80
2017-09-12T04:06:51.307Z,81.05
2017-09-12T04:09:26.175Z,80.94
2017-09-12T04:12:00.840Z,81.14
2017-09-12T04:14:35.740Z,81.13
2017-09-12T04:17:10.483Z,81.29
2017-09-12T04:19:45.367Z,81.66
2017-09-12T04:22:20.150Z,82.06
2017-09-12T04:24:55.365Z,81.93
2017-09-12T04:27:29.923Z,82.01
2017-09-12T04:30:04.576Z,82.29
2017-09-12T04:32:39.311Z,82.56
2017-09-12T04:35:14.391Z,82.97
2017-09-12T04:37:49.396Z,82.98
2017-09-12T04:40:23.727Z,82.98
2017-09-12T04:42:58.767Z,83.15
2017-09-12T04:45:33.324Z,83.38
2017-09-12T04:48:07.897Z,83.28
2017-09-12T04:50:42.994Z,83.36
2017-09-12T04:53:17.686Z,83.53
2017-09-12T04:55:52.383Z,84.04
2017-09-12T04:58:27.321Z,83.85
2017-09-12T05:01:02.112Z,83.51
2017-09-12T05:03:36.995Z,83.34
2017-09-12T05:06:11.727Z,83.69
2017-09-12T05:08:46.116Z,83.61
2017-09-12T05:11:21.180Z,83.62
2017-09-12T05:13:56.012Z,83.63
2017-09-12T05:16:30.702Z,83.94
2017-09-12T05:19:06.390Z,83.68
2017-09-12T05:21:41.192Z,83.57
2017-09-12T05:24:15.779Z,83.60
2017-09-12T05:26:50.704Z,83.54
2017-09-12T05:29:25.517Z,83.82
2017-09-12T05:32:00.345Z,83.81
2017-09-12T05:34:35.080Z,84.10
2017-09-12T05:37:09.699Z,84.14
2017-09-12T05:39:44.355Z,83.94
2017-09-12T05:42:19.532Z,84.29
2017-09-12T05:44:54.835Z,84.09
2017-09-12T05:47:29.540Z,84.20
2017-09-12T05:50:04.320Z,84.28
2017-09-12T05:52:39.235Z,84.14
2017-09-12T05:55:13.747Z,84.19
2017-09-12T05:57:48.431Z,84.45
2017-09-12T06:00:23.183Z,83.59
2017-09-12T06:02:57.967Z,83.49
2017-09-12T06:05:32.621Z,83.33
2017-09-12T06:08:07.343Z,83.26
2017-09-12T06:10:42.255Z,83.28
2017-09-12T06:13:17.096Z,82.66
2017-09-12T06:15:51.763Z,82.55
2017-09-12T06:18:26.546Z,82.12
2017-09-12T06:21:01.247Z,82.15
2017-09-12T06:23:36.308Z,81.70
2017-09-12T06:26:11.251Z,82.00
2017-09-12T06:28:45.981Z,81.63
2017-09-12T06:31:21.616Z,81.49
2017-09-12T06:33:56.344Z,80.85
2017-09-12T06:36:31.027Z,80.86
2017-09-12T06:39:05.112Z,80.08
2017-09-12T06:41:39.816Z,79.76
2017-09-12T06:44:14.694Z,80.07
2017-09-12T06:46:49.511Z,79.58
2017-09-12T06:49:24.039Z,80.09
2017-09-12T06:51:58.909Z,79.57
2017-09-12T06:54:33.697Z,80.40
2017-09-12T06:57:08.692Z,79.86
2017-09-12T06:59:43.047Z,79.91
2017-09-12T07:02:18.099Z,80.07
2017-09-12T07:04:52.888Z,79.67
2017-09-12T07:07:27.650Z,79.58
2017-09-12T07:10:02.144Z,80.21
2017-09-12T07:12:36.893Z,80.44
2017-09-12T07:15:11.851Z,80.26
2017-09-12T07:17:46.700Z,80.16
2017-09-12T07:20:22.225Z,80.89
2017-09-12T07:22:57.083Z,81.00
2017-09-12T07:25:31.499Z,81.23
2017-09-12T07:28:06.539Z,81.12
2017-09-12T07:30:41.331Z,81.78
2017-09-12T07:33:16.125Z,81.12
2017-09-12T07:35:51.123Z,81.37
2017-09-12T07:38:25.904Z,81.28
2017-09-12T07:41:00.802Z,81.28
2017-09-12T07:43:35.496Z,81.59
2017-09-12T07:46:10.525Z,82.78
2017-09-12T07:48:45.198Z,83.55
2017-09-12T07:51:19.795Z,84.78
2017-09-12T07:53:54.583Z,85.72
2017-09-12T07:56:29.556Z,85.51
2017-09-12T07:59:04.256Z,85.61
2017-09-12T08:01:39.388Z,84.94
2017-09-12T08:04:14.204Z,85.27
2017-09-12T08:06:49.187Z,85.16
2017-09-12T08:09:23.802Z,84.46
2017-09-12T08:11:58.407Z,84.43
2017-09-12T08:14:33.397Z,84.72
2017-09-12T08:17:07.999Z,84.27
2017-09-12T08:19:42.696Z,83.97
2017-09-12T08:22:17.504Z,82.95
2017-09-12T08:24:52.310Z,82.68
2017-09-12T08:27:26.932Z,82.08
2017-09-12T08:30:01.448Z,81.59
2017-09-12T08:32:37.281Z,80.62
2017-09-12T08:35:12.081Z,80.25
2017-09-12T08:37:47.965Z,79.90
2017-09-12T08:40:22.859Z,77.80
2017-09-12T08:42:57.892Z,77.07
2017-09-12T08:45:32.491Z,75.50
2017-09-12T08:48:07.103Z,74.27
2017-09-12T08:50:41.903Z,74.38
2017-09-12T08:53:16.528Z,73.22
2017-09-12T08:55:51.135Z,73.57
2017-09-12T08:58:25.735Z,71.88
2017-09-12T09:01:00.818Z,70.43
2017-09-12T09:03:35.948Z,71.43
2017-09-12T09:06:10.777Z,70.85
2017-09-12T09:08:45.574Z,71.21
2017-09-12T09:11:20.191Z,70.87
2017-09-12T09:13:54.993Z,70.92
2017-09-12T09:16:29.804Z,69.50
2017-09-12T09:19:04.498Z,68.89
2017-09-12T09:21:39.292Z,70.12
2017-09-12T09:24:14.137Z,68.75
2017-09-12T09:26:48.711Z,68.42
2017-09-12T09:29:23.587Z,69.67
2017-09-12T09:31:58.442Z,69.03
2017-09-12T09:34:33.198Z,68.95
2017-09-12T09:37:07.724Z,67.19
2017-09-12T09:39:42.271Z,67.08
2017-09-12T09:42:17.180Z,67.39
2017-09-12T09:44:52.077Z,67.04
2017-09-12T09:47:26.679Z,67.53
2017-09-12T09:50:01.114Z,67.25
2017-09-12T09:52:35.923Z,68.24
2017-09-12T09:55:10.805Z,65.55
2017-09-12T09:57:45.699Z,64.71
2017-09-12T10:00:20.723Z,65.50
2017-09-12T10:02:55.354Z,65.48
2017-09-12T10:05:30.273Z,65.06
2017-09-12T10:08:05.169Z,65.40
2017-09-12T10:10:40.077Z,64.61
2017-09-12T10:13:14.494Z,69.63
2017-09-12T10:15:49.354Z,69.97
2017-09-12T10:18:24.460Z,68.88
2017-09-12T10:20:59.059Z,68.68
2017-09-12T10:23:33.664Z,69.07
2017-09-12T10:26:08.324Z,69.87
2017-09-12T10:28:43.004Z,66.76
2017-09-12T10:31:17.707Z,67.66
2017-09-12T10:33:52.609Z,68.65
2017-09-12T10:36:27.401Z,71.14
2017-09-12T10:39:02.203Z,72.22
2017-09-12T10:41:37.028Z,72.87
2017-09-12T10:44:11.569Z,72.20
2017-09-12T10:46:46.479Z,69.28
2017-09-12T10:49:21.187Z,68.82
2017-09-12T10:51:56.019Z,65.64
2017-09-12T10:54:30.250Z,66.65
2017-09-12T10:57:05.147Z,66.05
2017-09-12T11:02:13.627Z,67.72
2017-09-12T11:04:48.359Z,63.78
2017-09-12T11:07:23.292Z,63.67
2017-09-12T11:09:58.052Z,63.88
2017-09-12T11:12:32.744Z,62.02
2017-09-12T11:15:07.411Z,61.22
2017-09-12T11:17:42.107Z,60.09
2017-09-12T11:20:16.912Z,60.24
2017-09-12T11:22:51.791Z,61.36
2017-09-12T11:25:26.716Z,62.06
2017-09-12T11:28:02.275Z,61.93
2017-09-12T11:30:37.039Z,67.44
2017-09-12T11:33:11.643Z,69.48
2017-09-12T11:35:46.488Z,68.96
2017-09-12T11:38:21.629Z,68.40
2017-09-12T11:40:56.425Z,68.07
2017-09-12T11:43:31.335Z,67.29
2017-09-12T11:46:06.047Z,66.79
2017-09-12T11:48:40.840Z,66.22
2017-09-12T11:51:15.675Z,64.94
2017-09-12T11:53:50.275Z,63.30
2017-09-12T11:56:25.217Z,63.53
2017-09-12T11:59:00.045Z,63.76
2017-09-12T12:01:34.619Z,62.05
2017-09-12T12:04:09.428Z,62.19
2017-09-12T12:06:44.351Z,62.55
2017-09-12T12:09:19.204Z,62.90
2017-09-12T12:11:54.044Z,63.30
2017-09-12T12:14:28.853Z,60.48
2017-09-12T12:17:03.653Z,62.44
2017-09-12T12:19:38.589Z,61.07
2017-09-12T12:22:13.368Z,59.17
2017-09-12T12:24:48.260Z,56.53
2017-09-12T12:27:23.073Z,59.33
2017-09-12T12:29:57.822Z,55.19
2017-09-12T12:32:32.317Z,54.98
2017-09-12T12:35:07.024Z,56.43
2017-09-12T12:37:41.731Z,55.63
2017-09-12T12:40:16.842Z,56.54
2017-09-12T12:42:51.523Z,56.52
2017-09-12T12:45:26.310Z,55.53
2017-09-12T12:48:00.975Z,57.00
2017-09-12T12:50:36.415Z,57.13
2017-09-12T12:53:11.229Z,58.81
2017-09-12T12:55:45.939Z,60.15
2017-09-12T12:58:20.932Z,63.18
2017-09-12T13:00:55.909Z,62.65
2017-09-12T13:03:30.607Z,63.86
2017-09-12T13:06:05.288Z,62.95
2017-09-12T13:08:39.932Z,63.57
2017-09-12T13:11:14.820Z,64.33
2017-09-12T13:13:49.185Z,64.30
2017-09-12T13:16:24.079Z,66.04
2017-09-12T13:18:58.815Z,65.36
2017-09-12T13:21:33.637Z,64.25
2017-09-12T13:24:08.306Z,64.85
2017-09-12T13:26:42.863Z,64.57
2017-09-12T13:29:17.808Z,65.71
2017-09-12T13:31:52.557Z,67.00
2017-09-12T13:34:28.135Z,67.66
2017-09-12T13:37:02.875Z,66.98
2017-09-12T13:39:37.627Z,68.10
2017-09-12T13:42:12.307Z,68.89
2017-09-12T13:44:47.216Z,64.67
2017-09-12T13:47:22.144Z,67.02
2017-09-12T13:49:56.971Z,67.90
2017-09-12T13:52:31.608Z,68.25
2017-09-12T13:55:06.257Z,67.39
2017-09-12T13:57:41.192Z,66.42
2017-09-12T14:00:19.026Z,67.29
2017-09-12T14:02:53.884Z,68.30
2017-09-12T14:05:28.667Z,69.64
2017-09-12T14:08:03.476Z,67.25
2017-09-12T14:10:38.339Z,67.29
2017-09-12T14:13:12.912Z,67.59
2017-09-12T14:15:47.764Z,67.52
2017-09-12T14:18:22.124Z,67.78
2017-09-12T14:20:56.948Z,68.21
2017-09-12T14:23:31.574Z,65.85
2017-09-12T14:26:06.156Z,65.36
2017-09-12T14:28:41.305Z,65.57
2017-09-12T14:31:15.792Z,67.93
2017-09-12T14:33:50.758Z,66.49
2017-09-12T14:36:25.807Z,65.72
2017-09-12T14:39:00.519Z,66.92
2017-09-12T14:41:35.403Z,67.18
2017-09-12T14:44:09.900Z,64.98
2017-09-12T14:46:44.918Z,66.53
2017-09-12T14:49:19.625Z,63.31
2017-09-12T14:51:54.645Z,65.06
2017-09-12T14:54:29.403Z,65.56
2017-09-12T14:57:04.342Z,62.66
2017-09-12T14:59:38.988Z,60.75
2017-09-12T15:02:13.894Z,61.82
2017-09-12T15:04:48.831Z,60.52
2017-09-12T15:07:23.552Z,60.29
2017-09-12T15:09:58.285Z,61.63
2017-09-12T15:12:33.202Z,61.63
2017-09-12T15:15:08.010Z,60.22
2017-09-12T15:17:42.740Z,61.69
2017-09-12T15:20:17.742Z,62.14
2017-09-12T15:22:52.537Z,62.31
2017-09-12T15:25:27.181Z,62.99
2017-09-12T15:28:01.937Z,62.40
2017-09-12T15:30:36.783Z,62.66
2017-09-12T15:33:11.263Z,62.57
2017-09-12T15:35:46.295Z,62.31
2017-09-12T15:38:20.817Z,63.05
2017-09-12T15:40:55.458Z,63.63
2017-09-12T15:43:30.442Z,63.52
2017-09-12T15:46:05.099Z,63.93
2017-09-12T15:48:40.042Z,65.36
2017-09-12T15:51:15.421Z,65.68
2017-09-12T15:53:50.440Z,65.25
2017-09-12T15:56:24.994Z,66.63
2017-09-12T15:58:59.846Z,66.37
2017-09-12T16:01:34.648Z,66.28
2017-09-12T16:04:09.431Z,67.03
2017-09-12T16:06:44.377Z,67.29
2017-09-12T16:09:19.206Z,68.04
2017-09-12T16:11:54.060Z,69.13
2017-09-12T16:14:29.160Z,69.69
2017-09-12T16:17:04.161Z,70.72
2017-09-12T16:19:39.076Z,75.93
2017-09-12T16:22:13.960Z,77.45
2017-09-12T16:24:48.756Z,78.34
2017-09-12T16:27:24.527Z,77.16
2017-09-12T16:29:59.333Z,76.73
2017-09-12T16:32:34.143Z,76.88
2017-09-12T16:35:08.921Z,77.32
2017-09-12T16:37:43.893Z,78.26
2017-09-12T16:40:18.733Z,78.01
2017-09-12T16:42:53.709Z,77.18
2017-09-12T16:45:28.539Z,77.42
2017-09-12T16:48:03.271Z,77.56
2017-09-12T16:50:38.063Z,76.77
2017-09-12T16:53:12.855Z,77.62
2017-09-12T16:55:47.981Z,77.74
2017-09-12T16:58:22.317Z,77.85
2017-09-12T17:00:57.382Z,77.44
2017-09-12T17:03:32.011Z,77.96
2017-09-12T17:06:06.776Z,77.66
2017-09-12T17:08:41.939Z,76.90
2017-09-12T17:11:16.588Z,76.74
2017-09-12T17:13:52.059Z,77.42
2017-09-12T17:16:26.737Z,77.44
2017-09-12T17:19:01.683Z,78.19
2017-09-12T17:21:36.355Z,78.14
2017-09-12T17:24:11.056Z,78.60
2017-09-12T17:26:45.662Z,79.33
2017-09-12T17:29:20.638Z,79.21
2017-09-12T17:31:55.232Z,80.38
2017-09-12T17:34:30.057Z,81.57
2017-09-12T17:37:04.703Z,82.13
2017-09-12T17:39:39.435Z,83.04
2017-09-12T17:42:14.334Z,83.61
2017-09-12T17:44:49.912Z,83.18
2017-09-12T17:47:24.535Z,83.17
2017-09-12T17:49:59.335Z,83.31
2017-09-12T17:52:34.351Z,83.49
2017-09-12T17:55:10.704Z,83.55
2017-09-12T17:57:45.863Z,83.39
2017-09-12T18:00:20.215Z,83.67
2017-09-12T18:02:55.147Z,83.63
2017-09-12T18:05:29.837Z,83.54
2017-09-12T18:08:04.562Z,83.72
2017-09-12T18:10:39.262Z,83.66
2017-09-12T18:13:13.955Z,83.79
2017-09-12T18:15:48.792Z,83.70
2017-09-12T18:18:23.832Z,84.01
2017-09-12T18:21:04.138Z,84.32
2017-09-12T18:23:39.553Z,84.57
2017-09-12T18:26:14.240Z,84.94
2017-09-12T18:28:49.164Z,85.41
2017-09-12T18:31:24.049Z,85.77
2017-09-12T18:33:58.753Z,86.42
2017-09-12T18:36:33.595Z,86.18
2017-09-12T18:39:08.284Z,85.93
2017-09-12T18:41:43.104Z,86.35
2017-09-12T18:44:18.165Z,86.47
2017-09-12T18:46:53.039Z,86.86
2017-09-12T18:49:27.838Z,87.37
2017-09-12T18:52:02.628Z,87.57
2017-09-12T18:54:37.131Z,87.33
2017-09-12T18:57:12.572Z,86.40
2017-09-12T18:59:47.019Z,85.52
2017-09-12T19:02:21.820Z,85.62
2017-09-12T19:04:56.613Z,85.47
2017-09-12T19:07:31.583Z,85.09
2017-09-12T19:10:06.330Z,85.11
2017-09-12T19:12:41.135Z,85.16
2017-09-12T19:15:16.033Z,85.38
2017-09-12T19:17:50.963Z,85.92
2017-09-12T19:20:25.886Z,86.15
2017-09-12T19:23:06.618Z,86.14
2017-09-12T19:25:41.654Z,86.06
2017-09-12T19:28:16.346Z,86.08
2017-09-12T19:30:51.125Z,86.04
2017-09-12T19:33:26.045Z,85.48
2017-09-12T19:36:00.780Z,85.14
2017-09-12T19:38:35.624Z,85.47
2017-09-12T19:41:10.239Z,85.39
2017-09-12T19:43:45.219Z,84.97
2017-09-12T19:46:20.203Z,84.90
2017-09-12T19:48:55.104Z,84.97
2017-09-12T19:51:29.947Z,85.17
2017-09-12T19:54:04.741Z,85.29
2017-09-12T19:56:39.591Z,85.47
2017-09-12T19:59:14.423Z,85.05
2017-09-12T20:01:49.135Z,85.48
2017-09-12T20:04:24.247Z,85.81
2017-09-12T20:06:58.765Z,86.15
2017-09-12T20:09:33.662Z,85.69
2017-09-12T20:12:08.342Z,85.59
2017-09-12T20:14:43.073Z,85.67
2017-09-12T20:17:17.709Z,85.60
2017-09-12T20:19:52.416Z,85.94
2017-09-12T20:22:27.946Z,86.06
2017-09-12T20:25:03.019Z,85.92
2017-09-12T20:27:38.084Z,86.00
2017-09-12T20:30:12.795Z,86.22
2017-09-12T20:32:47.583Z,86.58
2017-09-12T20:35:22.688Z,86.48
2017-09-12T20:37:57.519Z,86.05
2017-09-12T20:40:32.218Z,85.93
2017-09-12T20:43:06.980Z,85.96
2017-09-12T20:45:41.780Z,87.17
2017-09-12T20:48:16.433Z,86.99
2017-09-12T20:50:51.414Z,86.82
2017-09-12T20:53:26.272Z,86.81
2017-09-12T20:56:01.164Z,87.24
2017-09-12T20:58:35.959Z,87.45
2017-09-12T21:01:10.705Z,86.91
2017-09-12T21:03:45.527Z,87.03
2017-09-12T21:06:20.562Z,86.70
2017-09-12T21:08:55.287Z,86.95
2017-09-12T21:11:30.041Z,86.88
2017-09-12T21:14:04.855Z,87.16
2017-09-12T21:16:39.575Z,87.41
2017-09-12T21:19:14.291Z,87.19
2017-09-12T21:21:49.211Z,87.26
2017-09-12T21:24:23.914Z,87.47
2017-09-12T21:26:58.795Z,87.42
2017-09-12T21:29:33.334Z,87.46
2017-09-12T21:32:08.151Z,87.31
2017-09-12T21:34:42.779Z,87.13
2017-09-12T21:37:17.441Z,86.72
2017-09-12T21:39:52.056Z,87.10
2017-09-12T21:42:26.721Z,87.05
2017-09-12T21:45:01.516Z,87.91
2017-09-12T21:47:36.171Z,87.58
2017-09-12T21:50:10.827Z,87.99
2017-09-12T21:52:45.659Z,88.37
2017-09-12T21:55:20.263Z,89.06
2017-09-12T21:57:54.890Z,89.04
2017-09-12T22:00:29.661Z,88.95
2017-09-12T22:03:04.476Z,89.20
2017-09-12T22:05:39.040Z,88.75
2017-09-12T22:08:13.672Z,87.76
2017-09-12T22:10:48.486Z,88.08
2017-09-12T22:13:23.367Z,87.89
2017-09-12T22:15:58.080Z,88.22
2017-09-12T22:18:32.786Z,88.73
2017-09-12T22:21:08.388Z,89.08
2017-09-12T22:23:43.312Z,89.56
2017-09-12T22:26:18.995Z,90.04
2017-09-12T22:28:53.656Z,90.46
2017-09-12T22:31:29.157Z,90.16
2017-09-12T22:34:03.531Z,90.67
2017-09-12T22:36:38.650Z,90.38
2017-09-12T22:39:13.414Z,90.15
2017-09-12T22:41:49.764Z,90.42
2017-09-12T22:44:24.239Z,90.88
2017-09-12T22:46:58.985Z,90.68
2017-09-12T22:49:33.639Z,91.16
2017-09-12T22:52:08.585Z,90.87
2017-09-12T22:54:43.095Z,90.60
2017-09-12T22:57:17.940Z,90.86
2017-09-12T22:59:52.704Z,90.73
2017-09-12T23:02:27.217Z,90.85
2017-09-12T23:05:02.232Z,91.15
2017-09-12T23:07:36.899Z,91.23
2017-09-12T23:10:11.439Z,91.39
2017-09-12T23:12:45.935Z,91.18
2017-09-12T23:15:20.927Z,90.76
2017-09-12T23:17:55.751Z,90.78
2017-09-12T23:20:30.568Z,91.13
2017-09-12T23:23:05.550Z,90.36
2017-09-12T23:25:40.355Z,90.45
2017-09-12T23:28:15.156Z,90.20
2017-09-12T23:30:50.013Z,89.99
2017-09-12T23:33:24.790Z,90.65
2017-09-12T23:35:59.143Z,90.74
2017-09-12T23:38:33.955Z,90.58
2017-09-12T23:41:08.672Z,90.20
2017-09-12T23:43:43.368Z,90.89
2017-09-12T23:46:18.288Z,90.39
2017-09-12T23:48:53.099Z,90.11
2017-09-12T23:51:27.741Z,89.90
2017-09-12T23:54:03.644Z,89.88
2017-09-12T23:56:38.248Z,89.50
2017-09-12T23:59:12.863Z,89.44
